Flight Track Log - Related Links

Times and Time Zones

All times are in EDT time to prevent confusion due to time zone crossing. See the OPT452 flight status page for this flight to view local times or setup timezone preferences in your user account.

Time Position Orientation Groundspeed Altitude Reporting Facility
EDT Latitude Longitude Course Direction KTS MPH feet Rate Location/Type
Sat 09:11:17 PM 39.0667 -84.3833 142° Southeast 193 222 2,900  Level Cincinnati TRACON
Sat 09:12:06 PM 39.0842 -84.3353 65° Northeast 222 255 5,300 2,727 Climbing Indianapolis Center
Sat 09:13:07 PM 39.1081 -84.2533 69° East 240 276 7,900 2,754 Climbing Indianapolis Center
Sat 09:14:08 PM 39.1383 -84.1519 69° East 292 336 10,900 3,124 Climbing Indianapolis Center
Sat 09:15:08 PM 39.1700 -84.0447 69° East 312 359 14,200 2,975 Climbing Indianapolis Center
Sat 09:16:09 PM 39.2047 -83.9278 69° East 339 390 16,900 2,705 Climbing Indianapolis Center
Sat 09:17:10 PM 39.2519 -83.8103 63° Northeast 362 417 19,700 2,016 Climbing Indianapolis Center
Sat 09:18:11 PM 39.3014 -83.6878 62° Northeast 381 438 21,000 639 Climbing Indianapolis Center
Sat 09:19:12 PM 39.3844 -83.5828 44° Northeast 414 476 21,000  Level Indianapolis Center
Sat 09:20:12 PM 39.4706 -83.4794 43° Northeast 420 483 21,000  Level Indianapolis Center
Sat 09:21:13 PM 39.5564 -83.3744 43° Northeast 421 484 21,000  Level Indianapolis Center
Sat 09:22:14 PM 39.6425 -83.2703 43° Northeast 423 487 21,000  Level Indianapolis Center
Sat 09:23:15 PM 39.7292 -83.1653 43° Northeast 426 490 21,000  Level Indianapolis Center
Sat 09:24:15 PM 39.8161 -83.0594 43° Northeast 427 491 21,000  Level Indianapolis Center
Sat 09:25:16 PM 39.9017 -82.9531 44° Northeast 426 490 21,000  Level Indianapolis Center
Sat 09:26:17 PM 39.9889 -82.8458 43° Northeast 428 493 21,000  Level Indianapolis Center
Sat 09:27:18 PM 40.0906 -82.7197 43° Northeast 428 493 21,000  Level Indianapolis Center
Sat 09:28:18 PM 40.1781 -82.6111 43° Northeast 431 496 21,000  Level Indianapolis Center
Sat 09:29:19 PM 40.2586 -82.5094 44° Northeast 430 495 21,000 -590 Level Indianapolis Center
Sat 09:30:20 PM 40.3478 -82.3983 44° Northeast 437 503 19,800 -1,230 Descending Indianapolis Center
Sat 09:31:21 PM 40.4369 -82.2853 44° Northeast 441 507 18,500 -1,240 Descending Indianapolis Center
Sat 09:32:21 PM 40.5256 -82.1753 43° Northeast 436 502 17,300 -1,211 Descending Indianapolis Center
Sat 09:33:10 PM 40.5972 -82.0817 45° Northeast 424 488 16,300 -1,321 Descending Cleveland Center
Sat 09:34:10 PM 40.6839 -81.9739 43° Northeast 424 488 14,900 -1,350 Descending Cleveland Center
Sat 09:35:10 PM 40.7667 -81.8661 45° Northeast 419 482 13,600 -1,313 Descending Cleveland Center
Sat 09:35:46 PM 40.8153 -81.8067 43° Northeast 413 475 12,800 -1,400 Descending Cleveland Center
Sat 09:36:10 PM 40.8492 -81.7606 46° Northeast 414 476 12,200 -1,286 Descending Cleveland Center
Sat 09:37:10 PM 40.9333 -81.6661 40° Northeast 408 470 11,000 -600 Descending Cleveland Center
Sat 09:38:10 PM 41.0317 -81.6292 16° North 374 430 11,000  Level Cleveland Center
Sat 09:39:10 PM 41.1175 -81.6056 12° North 361 415 11,000  Level Cleveland Center
Sat 09:40:10 PM 41.2197 -81.5769 12° North 356 410 11,000 -600 Level Cleveland Center
Sat 09:41:10 PM 41.3158 -81.5561 North 336 387 9,800 -1,850 Descending Cleveland Center
Sat 09:42:10 PM 41.3994 -81.5325 12° North 311 358 7,300 -2,500 Descending Cleveland Center
Sat 09:43:10 PM 41.4706 -81.5003 19° North 280 322 4,800 -2,050 Descending Cleveland Center
Sat 09:44:10 PM 41.5333 -81.4569 27° Northeast 259 298 3,200 -1,300 Descending Cleveland Center
Sat 09:45:10 PM 41.5753 -81.4297 26° Northeast 200 230 2,200 -913 Descending Cleveland Center
Sat 09:46:28 PM 41.5731 -81.4742 266° West 104 120 1,100 -846 Descending Cleveland Center
Sat 09:48:00 PM 41.5651 -81.4864 66° East  Level Estimated
Sat 09:55:00 PM 41.5651 -81.4864 66° East  Level Estimated

Login

Don't have an account? Register now (free) for customized features, flight alerts, and more!